sensor_id;sensor_type;location;lat;lon;timestamp;P1;durP1;ratioP1;P2;durP2;ratioP2
23242;SDS011;11790;49.578;11.214;2023-09-07T00:00:46;9.15;;;4.63;;
23242;SDS011;11790;49.578;11.214;2023-09-07T00:05:46;8.17;;;5.00;;
23242;SDS011;11790;49.578;11.214;2023-09-07T00:10:47;5.20;;;4.40;;
23242;SDS011;11790;49.578;11.214;2023-09-07T00:15:47;7.10;;;5.00;;
23242;SDS011;11790;49.578;11.214;2023-09-07T00:20:47;10.48;;;4.50;;
23242;SDS011;11790;49.578;11.214;2023-09-07T00:25:48;7.88;;;4.93;;
23242;SDS011;11790;49.578;11.214;2023-09-07T00:30:48;7.10;;;4.68;;
23242;SDS011;11790;49.578;11.214;2023-09-07T00:35:48;6.88;;;5.10;;
23242;SDS011;11790;49.578;11.214;2023-09-07T00:40:49;6.85;;;4.88;;
23242;SDS011;11790;49.578;11.214;2023-09-07T00:45:49;7.43;;;5.28;;
23242;SDS011;11790;49.578;11.214;2023-09-07T00:50:49;6.40;;;5.25;;
23242;SDS011;11790;49.578;11.214;2023-09-07T00:55:50;8.20;;;5.10;;
23242;SDS011;11790;49.578;11.214;2023-09-07T01:00:50;8.35;;;5.28;;
23242;SDS011;11790;49.578;11.214;2023-09-07T01:05:51;12.43;;;5.10;;
23242;SDS011;11790;49.578;11.214;2023-09-07T01:10:52;10.50;;;4.90;;
23242;SDS011;11790;49.578;11.214;2023-09-07T01:15:53;9.98;;;5.00;;
23242;SDS011;11790;49.578;11.214;2023-09-07T01:20:53;6.65;;;4.93;;
23242;SDS011;11790;49.578;11.214;2023-09-07T01:25:54;6.05;;;4.65;;
23242;SDS011;11790;49.578;11.214;2023-09-07T01:30:55;8.52;;;4.85;;
23242;SDS011;11790;49.578;11.214;2023-09-07T01:35:55;6.32;;;4.57;;
23242;SDS011;11790;49.578;11.214;2023-09-07T01:40:55;6.13;;;4.50;;
23242;SDS011;11790;49.578;11.214;2023-09-07T01:45:55;8.32;;;4.70;;
23242;SDS011;11790;49.578;11.214;2023-09-07T01:50:55;6.82;;;5.22;;
23242;SDS011;11790;49.578;11.214;2023-09-07T01:55:56;6.78;;;5.03;;
23242;SDS011;11790;49.578;11.214;2023-09-07T02:00:56;9.70;;;5.00;;
23242;SDS011;11790;49.578;11.214;2023-09-07T02:05:57;7.38;;;5.10;;
23242;SDS011;11790;49.578;11.214;2023-09-07T02:10:57;6.70;;;5.15;;
23242;SDS011;11790;49.578;11.214;2023-09-07T02:15:58;6.57;;;5.22;;
23242;SDS011;11790;49.578;11.214;2023-09-07T02:21:01;10.30;;;5.82;;
23242;SDS011;11790;49.578;11.214;2023-09-07T02:26:02;7.38;;;5.57;;
23242;SDS011;11790;49.578;11.214;2023-09-07T02:31:02;8.75;;;5.90;;
23242;SDS011;11790;49.578;11.214;2023-09-07T02:36:04;7.28;;;5.50;;
23242;SDS011;11790;49.578;11.214;2023-09-07T02:41:04;9.18;;;6.50;;
23242;SDS011;11790;49.578;11.214;2023-09-07T02:46:04;6.47;;;5.43;;
23242;SDS011;11790;49.578;11.214;2023-09-07T02:51:05;8.18;;;5.38;;
23242;SDS011;11790;49.578;11.214;2023-09-07T02:56:05;7.00;;;5.40;;
23242;SDS011;11790;49.578;11.214;2023-09-07T03:01:06;9.20;;;5.82;;
23242;SDS011;11790;49.578;11.214;2023-09-07T03:06:12;8.10;;;5.35;;
23242;SDS011;11790;49.578;11.214;2023-09-07T03:11:12;9.80;;;5.68;;
23242;SDS011;11790;49.578;11.214;2023-09-07T03:16:13;7.85;;;5.82;;
23242;SDS011;11790;49.578;11.214;2023-09-07T03:21:13;15.40;;;6.90;;
23242;SDS011;11790;49.578;11.214;2023-09-07T03:26:13;9.45;;;6.22;;
23242;SDS011;11790;49.578;11.214;2023-09-07T03:31:13;10.00;;;6.90;;
23242;SDS011;11790;49.578;11.214;2023-09-07T03:36:13;15.00;;;7.20;;
23242;SDS011;11790;49.578;11.214;2023-09-07T03:41:14;9.07;;;6.50;;
23242;SDS011;11790;49.578;11.214;2023-09-07T03:46:15;8.98;;;6.55;;
23242;SDS011;11790;49.578;11.214;2023-09-07T03:51:15;9.18;;;6.75;;
23242;SDS011;11790;49.578;11.214;2023-09-07T03:56:15;8.63;;;6.50;;
23242;SDS011;11790;49.578;11.214;2023-09-07T04:01:15;8.50;;;6.65;;
23242;SDS011;11790;49.578;11.214;2023-09-07T04:06:15;9.00;;;5.78;;
23242;SDS011;11790;49.578;11.214;2023-09-07T04:11:15;10.10;;;5.93;;
23242;SDS011;11790;49.578;11.214;2023-09-07T04:16:16;10.60;;;7.45;;
23242;SDS011;11790;49.578;11.214;2023-09-07T04:21:16;11.13;;;7.43;;
23242;SDS011;11790;49.578;11.214;2023-09-07T04:26:17;10.88;;;6.75;;
23242;SDS011;11790;49.578;11.214;2023-09-07T04:31:17;11.45;;;7.00;;
23242;SDS011;11790;49.578;11.214;2023-09-07T04:36:17;9.10;;;7.03;;
23242;SDS011;11790;49.578;11.214;2023-09-07T04:41:18;8.30;;;6.35;;
23242;SDS011;11790;49.578;11.214;2023-09-07T04:46:20;10.13;;;6.83;;
23242;SDS011;11790;49.578;11.214;2023-09-07T04:51:21;10.30;;;6.63;;
23242;SDS011;11790;49.578;11.214;2023-09-07T04:56:22;10.48;;;6.80;;
23242;SDS011;11790;49.578;11.214;2023-09-07T05:01:22;10.10;;;7.13;;
23242;SDS011;11790;49.578;11.214;2023-09-07T05:06:22;10.20;;;7.07;;
23242;SDS011;11790;49.578;11.214;2023-09-07T05:11:23;8.55;;;6.43;;
23242;SDS011;11790;49.578;11.214;2023-09-07T05:16:23;11.13;;;6.60;;
23242;SDS011;11790;49.578;11.214;2023-09-07T05:21:23;8.23;;;6.15;;
23242;SDS011;11790;49.578;11.214;2023-09-07T05:26:23;8.48;;;6.22;;
23242;SDS011;11790;49.578;11.214;2023-09-07T05:31:26;11.35;;;7.10;;
23242;SDS011;11790;49.578;11.214;2023-09-07T05:36:27;9.70;;;6.60;;
23242;SDS011;11790;49.578;11.214;2023-09-07T05:41:27;9.45;;;6.78;;
23242;SDS011;11790;49.578;11.214;2023-09-07T05:46:27;9.23;;;6.72;;
23242;SDS011;11790;49.578;11.214;2023-09-07T05:51:27;11.77;;;6.57;;
23242;SDS011;11790;49.578;11.214;2023-09-07T05:56:27;8.10;;;5.95;;
23242;SDS011;11790;49.578;11.214;2023-09-07T06:01:28;12.10;;;7.00;;
23242;SDS011;11790;49.578;11.214;2023-09-07T06:06:28;8.38;;;6.32;;
23242;SDS011;11790;49.578;11.214;2023-09-07T06:11:28;11.30;;;6.40;;
23242;SDS011;11790;49.578;11.214;2023-09-07T06:16:30;10.35;;;6.57;;
23242;SDS011;11790;49.578;11.214;2023-09-07T06:21:30;8.35;;;6.18;;
23242;SDS011;11790;49.578;11.214;2023-09-07T06:26:30;6.22;;;5.35;;
23242;SDS011;11790;49.578;11.214;2023-09-07T06:31:30;7.95;;;4.95;;
23242;SDS011;11790;49.578;11.214;2023-09-07T06:36:30;5.95;;;4.45;;
23242;SDS011;11790;49.578;11.214;2023-09-07T06:41:31;5.10;;;4.55;;
23242;SDS011;11790;49.578;11.214;2023-09-07T06:46:31;5.40;;;4.00;;
23242;SDS011;11790;49.578;11.214;2023-09-07T06:51:31;6.50;;;3.90;;
23242;SDS011;11790;49.578;11.214;2023-09-07T06:56:32;4.20;;;3.45;;
23242;SDS011;11790;49.578;11.214;2023-09-07T07:01:34;5.55;;;3.45;;
23242;SDS011;11790;49.578;11.214;2023-09-07T07:06:35;3.67;;;3.17;;
23242;SDS011;11790;49.578;11.214;2023-09-07T07:11:35;6.93;;;3.03;;
23242;SDS011;11790;49.578;11.214;2023-09-07T07:16:35;4.72;;;2.90;;
23242;SDS011;11790;49.578;11.214;2023-09-07T07:21:36;4.40;;;2.70;;
23242;SDS011;11790;49.578;11.214;2023-09-07T07:26:36;4.47;;;2.90;;
23242;SDS011;11790;49.578;11.214;2023-09-07T07:31:37;4.43;;;3.08;;
23242;SDS011;11790;49.578;11.214;2023-09-07T07:36:37;4.80;;;2.80;;
23242;SDS011;11790;49.578;11.214;2023-09-07T07:41:37;8.30;;;3.08;;
23242;SDS011;11790;49.578;11.214;2023-09-07T07:46:38;4.07;;;3.00;;
23242;SDS011;11790;49.578;11.214;2023-09-07T07:51:38;4.40;;;2.53;;
23242;SDS011;11790;49.578;11.214;2023-09-07T07:56:39;3.47;;;2.83;;
23242;SDS011;11790;49.578;11.214;2023-09-07T08:01:39;8.60;;;2.53;;
23242;SDS011;11790;49.578;11.214;2023-09-07T08:06:40;5.90;;;2.85;;
23242;SDS011;11790;49.578;11.214;2023-09-07T08:11:40;5.10;;;2.65;;
23242;SDS011;11790;49.578;11.214;2023-09-07T08:16:40;4.90;;;2.53;;
23242;SDS011;11790;49.578;11.214;2023-09-07T08:21:40;3.78;;;2.33;;
23242;SDS011;11790;49.578;11.214;2023-09-07T08:26:42;4.65;;;2.78;;
23242;SDS011;11790;49.578;11.214;2023-09-07T08:31:43;3.90;;;2.50;;
23242;SDS011;11790;49.578;11.214;2023-09-07T08:36:45;2.90;;;2.30;;
23242;SDS011;11790;49.578;11.214;2023-09-07T08:41:46;3.33;;;2.38;;
23242;SDS011;11790;49.578;11.214;2023-09-07T08:46:48;2.80;;;2.50;;
23242;SDS011;11790;49.578;11.214;2023-09-07T08:51:49;5.72;;;2.50;;
23242;SDS011;11790;49.578;11.214;2023-09-07T08:56:49;4.35;;;2.35;;
23242;SDS011;11790;49.578;11.214;2023-09-07T09:01:50;4.18;;;2.20;;
23242;SDS011;11790;49.578;11.214;2023-09-07T09:06:50;2.83;;;2.30;;
23242;SDS011;11790;49.578;11.214;2023-09-07T09:11:52;3.72;;;2.30;;
23242;SDS011;11790;49.578;11.214;2023-09-07T09:16:52;4.22;;;2.30;;
23242;SDS011;11790;49.578;11.214;2023-09-07T09:21:52;4.07;;;2.40;;
23242;SDS011;11790;49.578;11.214;2023-09-07T09:26:55;3.65;;;2.28;;
23242;SDS011;11790;49.578;11.214;2023-09-07T09:31:56;2.60;;;2.40;;
23242;SDS011;11790;49.578;11.214;2023-09-07T09:36:56;5.10;;;2.53;;
23242;SDS011;11790;49.578;11.214;2023-09-07T09:41:56;2.63;;;2.05;;
23242;SDS011;11790;49.578;11.214;2023-09-07T09:46:57;3.00;;;2.55;;
23242;SDS011;11790;49.578;11.214;2023-09-07T09:51:57;3.45;;;2.15;;
23242;SDS011;11790;49.578;11.214;2023-09-07T09:56:58;2.50;;;2.25;;
23242;SDS011;11790;49.578;11.214;2023-09-07T10:01:58;2.67;;;2.00;;
23242;SDS011;11790;49.578;11.214;2023-09-07T10:07:00;2.55;;;2.22;;
23242;SDS011;11790;49.578;11.214;2023-09-07T10:12:01;3.67;;;2.78;;
23242;SDS011;11790;49.578;11.214;2023-09-07T10:17:03;5.22;;;2.28;;
23242;SDS011;11790;49.578;11.214;2023-09-07T10:22:04;4.20;;;2.13;;
23242;SDS011;11790;49.578;11.214;2023-09-07T10:27:05;2.60;;;2.10;;
23242;SDS011;11790;49.578;11.214;2023-09-07T10:32:05;2.53;;;2.20;;
23242;SDS011;11790;49.578;11.214;2023-09-07T10:37:06;2.50;;;2.30;;
23242;SDS011;11790;49.578;11.214;2023-09-07T10:42:31;2.80;;;2.13;;
23242;SDS011;11790;49.578;11.214;2023-09-07T10:52:33;2.75;;;2.00;;
23242;SDS011;11790;49.578;11.214;2023-09-07T10:57:40;3.65;;;2.10;;
23242;SDS011;11790;49.578;11.214;2023-09-07T11:02:41;2.85;;;2.40;;
23242;SDS011;11790;49.578;11.214;2023-09-07T11:07:42;2.42;;;2.22;;
23242;SDS011;11790;49.578;11.214;2023-09-07T11:12:43;4.30;;;2.53;;
23242;SDS011;11790;49.578;11.214;2023-09-07T11:17:44;3.83;;;2.30;;
23242;SDS011;11790;49.578;11.214;2023-09-07T11:22:44;5.72;;;2.50;;
23242;SDS011;11790;49.578;11.214;2023-09-07T11:27:44;3.13;;;2.30;;
23242;SDS011;11790;49.578;11.214;2023-09-07T11:32:44;2.30;;;2.10;;
23242;SDS011;11790;49.578;11.214;2023-09-07T11:37:51;2.28;;;2.08;;
23242;SDS011;11790;49.578;11.214;2023-09-07T11:42:51;4.95;;;2.85;;
23242;SDS011;11790;49.578;11.214;2023-09-07T11:47:51;2.75;;;2.15;;
23242;SDS011;11790;49.578;11.214;2023-09-07T11:52:52;4.90;;;2.67;;
23242;SDS011;11790;49.578;11.214;2023-09-07T11:57:52;2.75;;;2.33;;
23242;SDS011;11790;49.578;11.214;2023-09-07T12:02:52;3.08;;;2.45;;
23242;SDS011;11790;49.578;11.214;2023-09-07T12:07:52;3.60;;;2.10;;
23242;SDS011;11790;49.578;11.214;2023-09-07T12:12:52;3.40;;;2.30;;
23242;SDS011;11790;49.578;11.214;2023-09-07T12:17:53;3.38;;;2.40;;
23242;SDS011;11790;49.578;11.214;2023-09-07T12:22:54;3.97;;;2.50;;
23242;SDS011;11790;49.578;11.214;2023-09-07T12:27:54;2.65;;;2.10;;
23242;SDS011;11790;49.578;11.214;2023-09-07T12:32:54;4.17;;;2.60;;
23242;SDS011;11790;49.578;11.214;2023-09-07T12:37:55;2.50;;;2.15;;
23242;SDS011;11790;49.578;11.214;2023-09-07T12:42:55;2.25;;;1.98;;
23242;SDS011;11790;49.578;11.214;2023-09-07T12:47:55;2.65;;;2.45;;
23242;SDS011;11790;49.578;11.214;2023-09-07T12:52:55;4.75;;;2.35;;
23242;SDS011;11790;49.578;11.214;2023-09-07T12:57:55;7.10;;;2.30;;
23242;SDS011;11790;49.578;11.214;2023-09-07T13:02:55;2.58;;;2.30;;
23242;SDS011;11790;49.578;11.214;2023-09-07T13:07:56;3.20;;;2.08;;
23242;SDS011;11790;49.578;11.214;2023-09-07T13:12:58;3.85;;;2.08;;
23242;SDS011;11790;49.578;11.214;2023-09-07T13:17:58;5.82;;;2.25;;
23242;SDS011;11790;49.578;11.214;2023-09-07T13:22:58;5.28;;;2.72;;
23242;SDS011;11790;49.578;11.214;2023-09-07T13:27:58;2.60;;;2.13;;
23242;SDS011;11790;49.578;11.214;2023-09-07T13:32:58;3.55;;;2.30;;
23242;SDS011;11790;49.578;11.214;2023-09-07T13:37:59;5.43;;;2.05;;
23242;SDS011;11790;49.578;11.214;2023-09-07T13:43:00;2.30;;;2.10;;
23242;SDS011;11790;49.578;11.214;2023-09-07T13:48:00;2.53;;;2.10;;
23242;SDS011;11790;49.578;11.214;2023-09-07T13:53:02;2.80;;;2.20;;
23242;SDS011;11790;49.578;11.214;2023-09-07T13:58:02;2.70;;;2.20;;
23242;SDS011;11790;49.578;11.214;2023-09-07T14:03:02;2.78;;;2.25;;
23242;SDS011;11790;49.578;11.214;2023-09-07T14:08:03;2.13;;;1.93;;
23242;SDS011;11790;49.578;11.214;2023-09-07T14:13:03;6.22;;;2.20;;
23242;SDS011;11790;49.578;11.214;2023-09-07T14:18:04;3.63;;;2.22;;
23242;SDS011;11790;49.578;11.214;2023-09-07T14:23:04;2.63;;;1.93;;
23242;SDS011;11790;49.578;11.214;2023-09-07T14:28:04;3.08;;;1.98;;
23242;SDS011;11790;49.578;11.214;2023-09-07T14:33:04;2.50;;;2.30;;
23242;SDS011;11790;49.578;11.214;2023-09-07T14:38:05;2.40;;;2.20;;
23242;SDS011;11790;49.578;11.214;2023-09-07T14:43:05;4.63;;;2.30;;
23242;SDS011;11790;49.578;11.214;2023-09-07T14:48:06;2.43;;;2.07;;
23242;SDS011;11790;49.578;11.214;2023-09-07T14:53:06;5.47;;;2.33;;
23242;SDS011;11790;49.578;11.214;2023-09-07T14:58:06;4.97;;;2.40;;
23242;SDS011;11790;49.578;11.214;2023-09-07T15:03:08;6.23;;;1.80;;
23242;SDS011;11790;49.578;11.214;2023-09-07T15:08:09;3.35;;;1.92;;
23242;SDS011;11790;49.578;11.214;2023-09-07T15:13:09;2.25;;;2.05;;
23242;SDS011;11790;49.578;11.214;2023-09-07T15:18:10;3.13;;;2.17;;
23242;SDS011;11790;49.578;11.214;2023-09-07T15:23:10;2.55;;;2.00;;
23242;SDS011;11790;49.578;11.214;2023-09-07T15:28:10;3.60;;;2.20;;
23242;SDS011;11790;49.578;11.214;2023-09-07T15:33:11;2.63;;;2.17;;
23242;SDS011;11790;49.578;11.214;2023-09-07T15:38:11;2.20;;;2.00;;
23242;SDS011;11790;49.578;11.214;2023-09-07T15:43:11;2.00;;;1.80;;
23242;SDS011;11790;49.578;11.214;2023-09-07T15:48:11;2.42;;;2.03;;
23242;SDS011;11790;49.578;11.214;2023-09-07T15:53:12;3.73;;;1.97;;
23242;SDS011;11790;49.578;11.214;2023-09-07T15:58:12;4.80;;;2.10;;
23242;SDS011;11790;49.578;11.214;2023-09-07T16:03:13;2.20;;;1.70;;
23242;SDS011;11790;49.578;11.214;2023-09-07T16:08:14;3.25;;;1.80;;
23242;SDS011;11790;49.578;11.214;2023-09-07T16:13:14;2.60;;;2.05;;
23242;SDS011;11790;49.578;11.214;2023-09-07T16:18:14;3.85;;;1.92;;
23242;SDS011;11790;49.578;11.214;2023-09-07T16:23:16;8.88;;;2.50;;
23242;SDS011;11790;49.578;11.214;2023-09-07T16:28:16;3.13;;;2.63;;
23242;SDS011;11790;49.578;11.214;2023-09-07T16:33:16;3.10;;;2.53;;
23242;SDS011;11790;49.578;11.214;2023-09-07T16:38:19;2.95;;;2.10;;
23242;SDS011;11790;49.578;11.214;2023-09-07T16:43:20;3.42;;;2.40;;
23242;SDS011;11790;49.578;11.214;2023-09-07T16:48:22;3.55;;;2.40;;
23242;SDS011;11790;49.578;11.214;2023-09-07T16:53:22;4.18;;;2.20;;
23242;SDS011;11790;49.578;11.214;2023-09-07T16:58:22;4.35;;;2.40;;
23242;SDS011;11790;49.578;11.214;2023-09-07T17:03:22;3.00;;;2.22;;
23242;SDS011;11790;49.578;11.214;2023-09-07T17:08:22;3.13;;;2.60;;
23242;SDS011;11790;49.578;11.214;2023-09-07T17:13:23;3.13;;;2.42;;
23242;SDS011;11790;49.578;11.214;2023-09-07T17:18:23;3.33;;;2.70;;
23242;SDS011;11790;49.578;11.214;2023-09-07T17:23:24;7.72;;;4.32;;
23242;SDS011;11790;49.578;11.214;2023-09-07T17:28:24;33.88;;;20.30;;
23242;SDS011;11790;49.578;11.214;2023-09-07T17:33:24;21.25;;;11.63;;
23242;SDS011;11790;49.578;11.214;2023-09-07T17:38:25;7.28;;;5.13;;
23242;SDS011;11790;49.578;11.214;2023-09-07T17:43:26;4.22;;;3.17;;
23242;SDS011;11790;49.578;11.214;2023-09-07T17:48:26;4.10;;;2.63;;
23242;SDS011;11790;49.578;11.214;2023-09-07T17:53:26;4.40;;;3.00;;
23242;SDS011;11790;49.578;11.214;2023-09-07T17:58:26;4.50;;;3.20;;
23242;SDS011;11790;49.578;11.214;2023-09-07T18:03:26;5.28;;;3.10;;
23242;SDS011;11790;49.578;11.214;2023-09-07T18:08:26;3.92;;;2.97;;
23242;SDS011;11790;49.578;11.214;2023-09-07T18:13:27;4.75;;;3.28;;
23242;SDS011;11790;49.578;11.214;2023-09-07T18:18:27;4.60;;;2.95;;
23242;SDS011;11790;49.578;11.214;2023-09-07T18:23:27;3.97;;;2.90;;
23242;SDS011;11790;49.578;11.214;2023-09-07T18:28:28;4.63;;;3.40;;
23242;SDS011;11790;49.578;11.214;2023-09-07T18:33:28;6.43;;;2.92;;
23242;SDS011;11790;49.578;11.214;2023-09-07T18:38:29;5.55;;;3.28;;
23242;SDS011;11790;49.578;11.214;2023-09-07T18:43:30;4.28;;;2.95;;
23242;SDS011;11790;49.578;11.214;2023-09-07T18:48:30;4.32;;;3.00;;
23242;SDS011;11790;49.578;11.214;2023-09-07T18:53:31;4.57;;;3.03;;
23242;SDS011;11790;49.578;11.214;2023-09-07T18:58:31;4.53;;;2.65;;
23242;SDS011;11790;49.578;11.214;2023-09-07T19:03:31;5.07;;;2.83;;
23242;SDS011;11790;49.578;11.214;2023-09-07T19:08:32;5.38;;;3.47;;
23242;SDS011;11790;49.578;11.214;2023-09-07T19:13:32;4.25;;;3.45;;
23242;SDS011;11790;49.578;11.214;2023-09-07T19:18:32;4.65;;;3.80;;
23242;SDS011;11790;49.578;11.214;2023-09-07T19:23:33;7.45;;;3.60;;
23242;SDS011;11790;49.578;11.214;2023-09-07T19:28:33;5.32;;;4.07;;
23242;SDS011;11790;49.578;11.214;2023-09-07T19:33:33;6.18;;;4.38;;
23242;SDS011;11790;49.578;11.214;2023-09-07T19:38:33;6.93;;;4.13;;
23242;SDS011;11790;49.578;11.214;2023-09-07T19:43:33;8.80;;;4.40;;
23242;SDS011;11790;49.578;11.214;2023-09-07T19:48:34;6.93;;;4.43;;
23242;SDS011;11790;49.578;11.214;2023-09-07T19:53:34;6.68;;;3.60;;
23242;SDS011;11790;49.578;11.214;2023-09-07T19:58:35;6.72;;;3.63;;
23242;SDS011;11790;49.578;11.214;2023-09-07T20:03:35;7.18;;;3.50;;
23242;SDS011;11790;49.578;11.214;2023-09-07T20:08:36;5.72;;;4.00;;
23242;SDS011;11790;49.578;11.214;2023-09-07T20:13:36;5.65;;;3.70;;
23242;SDS011;11790;49.578;11.214;2023-09-07T20:18:37;5.68;;;3.67;;
23242;SDS011;11790;49.578;11.214;2023-09-07T20:23:38;7.22;;;3.92;;
23242;SDS011;11790;49.578;11.214;2023-09-07T20:28:39;6.10;;;3.60;;
23242;SDS011;11790;49.578;11.214;2023-09-07T20:33:44;5.55;;;3.42;;
23242;SDS011;11790;49.578;11.214;2023-09-07T20:38:45;6.97;;;3.90;;
23242;SDS011;11790;49.578;11.214;2023-09-07T20:43:45;6.00;;;3.75;;
23242;SDS011;11790;49.578;11.214;2023-09-07T20:48:46;6.47;;;3.80;;
23242;SDS011;11790;49.578;11.214;2023-09-07T20:53:46;4.83;;;3.80;;
23242;SDS011;11790;49.578;11.214;2023-09-07T20:58:47;7.00;;;3.88;;
23242;SDS011;11790;49.578;11.214;2023-09-07T21:03:47;6.88;;;3.78;;
23242;SDS011;11790;49.578;11.214;2023-09-07T21:08:47;5.38;;;3.90;;
23242;SDS011;11790;49.578;11.214;2023-09-07T21:13:48;5.93;;;3.95;;
23242;SDS011;11790;49.578;11.214;2023-09-07T21:18:48;8.82;;;4.00;;
23242;SDS011;11790;49.578;11.214;2023-09-07T21:23:50;6.60;;;3.83;;
23242;SDS011;11790;49.578;11.214;2023-09-07T21:28:50;8.25;;;3.95;;
23242;SDS011;11790;49.578;11.214;2023-09-07T21:33:51;5.05;;;3.75;;
23242;SDS011;11790;49.578;11.214;2023-09-07T21:38:51;7.15;;;4.18;;
23242;SDS011;11790;49.578;11.214;2023-09-07T21:43:51;6.95;;;4.32;;
23242;SDS011;11790;49.578;11.214;2023-09-07T21:48:51;5.10;;;4.10;;
23242;SDS011;11790;49.578;11.214;2023-09-07T21:53:52;10.20;;;4.13;;
23242;SDS011;11790;49.578;11.214;2023-09-07T21:58:52;5.60;;;4.10;;
23242;SDS011;11790;49.578;11.214;2023-09-07T22:03:52;6.95;;;4.00;;
23242;SDS011;11790;49.578;11.214;2023-09-07T22:08:54;5.88;;;4.00;;
23242;SDS011;11790;49.578;11.214;2023-09-07T22:13:55;5.28;;;3.95;;
23242;SDS011;11790;49.578;11.214;2023-09-07T22:18:55;6.00;;;4.20;;
23242;SDS011;11790;49.578;11.214;2023-09-07T22:23:55;6.25;;;3.88;;
23242;SDS011;11790;49.578;11.214;2023-09-07T22:28:56;8.93;;;4.93;;
23242;SDS011;11790;49.578;11.214;2023-09-07T22:33:56;5.38;;;3.90;;
23242;SDS011;11790;49.578;11.214;2023-09-07T22:38:57;5.90;;;4.45;;
23242;SDS011;11790;49.578;11.214;2023-09-07T22:43:57;6.38;;;4.50;;
23242;SDS011;11790;49.578;11.214;2023-09-07T22:48:57;5.55;;;4.28;;
23242;SDS011;11790;49.578;11.214;2023-09-07T22:53:57;7.88;;;4.70;;
23242;SDS011;11790;49.578;11.214;2023-09-07T22:58:58;6.75;;;4.53;;
23242;SDS011;11790;49.578;11.214;2023-09-07T23:03:58;7.78;;;4.38;;
23242;SDS011;11790;49.578;11.214;2023-09-07T23:08:58;6.68;;;4.45;;
23242;SDS011;11790;49.578;11.214;2023-09-07T23:13:58;10.00;;;4.50;;
23242;SDS011;11790;49.578;11.214;2023-09-07T23:18:58;9.43;;;4.43;;
23242;SDS011;11790;49.578;11.214;2023-09-07T23:23:59;6.47;;;4.40;;
23242;SDS011;11790;49.578;11.214;2023-09-07T23:28:59;5.97;;;4.20;;
23242;SDS011;11790;49.578;11.214;2023-09-07T23:33:59;6.43;;;4.40;;
23242;SDS011;11790;49.578;11.214;2023-09-07T23:38:59;5.72;;;4.43;;
23242;SDS011;11790;49.578;11.214;2023-09-07T23:44:00;7.25;;;4.38;;
23242;SDS011;11790;49.578;11.214;2023-09-07T23:49:00;5.68;;;4.68;;
23242;SDS011;11790;49.578;11.214;2023-09-07T23:54:00;8.70;;;5.32;;
23242;SDS011;11790;49.578;11.214;2023-09-07T23:59:00;8.57;;;4.95;;
